sensor_id;sensor_type;location;lat;lon;timestamp;P1;durP1;ratioP1;P2;durP2;ratioP2
4244;SDS011;2136;48.502;9.194;2023-09-08T00:00:59;7.60;;;6.77;;
4244;SDS011;2136;48.502;9.194;2023-09-08T00:03:26;8.47;;;6.70;;
4244;SDS011;2136;48.502;9.194;2023-09-08T00:05:53;13.53;;;6.27;;
4244;SDS011;2136;48.502;9.194;2023-09-08T00:08:20;6.63;;;6.03;;
4244;SDS011;2136;48.502;9.194;2023-09-08T00:10:47;6.90;;;5.90;;
4244;SDS011;2136;48.502;9.194;2023-09-08T00:13:15;7.70;;;6.73;;
4244;SDS011;2136;48.502;9.194;2023-09-08T00:15:41;10.87;;;7.50;;
4244;SDS011;2136;48.502;9.194;2023-09-08T00:18:08;11.50;;;6.13;;
4244;SDS011;2136;48.502;9.194;2023-09-08T00:20:36;7.53;;;6.70;;
4244;SDS011;2136;48.502;9.194;2023-09-08T00:23:03;8.23;;;7.03;;
4244;SDS011;2136;48.502;9.194;2023-09-08T00:25:30;8.50;;;7.30;;
4244;SDS011;2136;48.502;9.194;2023-09-08T00:27:57;7.80;;;7.03;;
4244;SDS011;2136;48.502;9.194;2023-09-08T00:30:25;7.77;;;6.40;;
4244;SDS011;2136;48.502;9.194;2023-09-08T00:32:52;11.47;;;7.60;;
4244;SDS011;2136;48.502;9.194;2023-09-08T00:35:18;8.03;;;7.07;;
4244;SDS011;2136;48.502;9.194;2023-09-08T00:37:45;9.30;;;7.20;;
4244;SDS011;2136;48.502;9.194;2023-09-08T00:40:12;8.90;;;7.13;;
4244;SDS011;2136;48.502;9.194;2023-09-08T00:42:39;12.63;;;8.13;;
4244;SDS011;2136;48.502;9.194;2023-09-08T00:45:06;8.90;;;8.00;;
4244;SDS011;2136;48.502;9.194;2023-09-08T00:47:34;9.97;;;7.43;;
4244;SDS011;2136;48.502;9.194;2023-09-08T00:50:01;7.70;;;6.80;;
4244;SDS011;2136;48.502;9.194;2023-09-08T00:52:29;9.30;;;8.20;;
4244;SDS011;2136;48.502;9.194;2023-09-08T00:54:57;8.33;;;7.20;;
4244;SDS011;2136;48.502;9.194;2023-09-08T00:57:25;7.80;;;7.00;;
4244;SDS011;2136;48.502;9.194;2023-09-08T00:59:52;10.33;;;7.30;;
4244;SDS011;2136;48.502;9.194;2023-09-08T01:02:20;9.07;;;7.27;;
4244;SDS011;2136;48.502;9.194;2023-09-08T01:04:48;8.10;;;7.23;;
4244;SDS011;2136;48.502;9.194;2023-09-08T01:07:15;8.53;;;7.70;;
4244;SDS011;2136;48.502;9.194;2023-09-08T01:09:45;9.77;;;7.60;;
4244;SDS011;2136;48.502;9.194;2023-09-08T01:12:13;10.20;;;7.70;;
4244;SDS011;2136;48.502;9.194;2023-09-08T01:14:41;10.77;;;7.47;;
4244;SDS011;2136;48.502;9.194;2023-09-08T01:17:08;13.23;;;7.73;;
4244;SDS011;2136;48.502;9.194;2023-09-08T01:19:35;8.10;;;7.30;;
4244;SDS011;2136;48.502;9.194;2023-09-08T01:22:20;7.80;;;7.10;;
4244;SDS011;2136;48.502;9.194;2023-09-08T01:27:52;8.60;;;7.80;;
4244;SDS011;2136;48.502;9.194;2023-09-08T01:30:19;9.17;;;8.27;;
4244;SDS011;2136;48.502;9.194;2023-09-08T01:32:47;12.50;;;7.57;;
4244;SDS011;2136;48.502;9.194;2023-09-08T01:35:15;8.83;;;7.70;;
4244;SDS011;2136;48.502;9.194;2023-09-08T01:37:44;8.93;;;7.87;;
4244;SDS011;2136;48.502;9.194;2023-09-08T01:40:12;8.30;;;7.50;;
4244;SDS011;2136;48.502;9.194;2023-09-08T01:42:40;13.57;;;7.60;;
4244;SDS011;2136;48.502;9.194;2023-09-08T01:50:32;8.60;;;7.70;;
4244;SDS011;2136;48.502;9.194;2023-09-08T01:52:59;16.47;;;8.60;;
4244;SDS011;2136;48.502;9.194;2023-09-08T01:55:25;9.53;;;8.57;;
4244;SDS011;2136;48.502;9.194;2023-09-08T01:57:53;8.80;;;7.63;;
4244;SDS011;2136;48.502;9.194;2023-09-08T02:00:20;9.27;;;8.33;;
4244;SDS011;2136;48.502;9.194;2023-09-08T02:02:47;8.80;;;7.73;;
4244;SDS011;2136;48.502;9.194;2023-09-08T02:05:14;8.87;;;7.90;;
4244;SDS011;2136;48.502;9.194;2023-09-08T02:07:41;10.87;;;8.10;;
4244;SDS011;2136;48.502;9.194;2023-09-08T02:10:08;7.60;;;6.90;;
4244;SDS011;2136;48.502;9.194;2023-09-08T02:12:36;12.80;;;7.77;;
4244;SDS011;2136;48.502;9.194;2023-09-08T02:15:05;8.23;;;7.43;;
4244;SDS011;2136;48.502;9.194;2023-09-08T02:17:33;9.73;;;8.47;;
4244;SDS011;2136;48.502;9.194;2023-09-08T02:20:00;10.20;;;7.50;;
4244;SDS011;2136;48.502;9.194;2023-09-08T02:22:27;11.07;;;8.07;;
4244;SDS011;2136;48.502;9.194;2023-09-08T02:24:54;8.80;;;7.90;;
4244;SDS011;2136;48.502;9.194;2023-09-08T02:27:23;9.30;;;7.80;;
4244;SDS011;2136;48.502;9.194;2023-09-08T02:29:49;8.20;;;7.07;;
4244;SDS011;2136;48.502;9.194;2023-09-08T02:32:18;11.10;;;7.43;;
4244;SDS011;2136;48.502;9.194;2023-09-08T02:34:44;8.63;;;7.37;;
4244;SDS011;2136;48.502;9.194;2023-09-08T02:37:13;8.33;;;6.60;;
4244;SDS011;2136;48.502;9.194;2023-09-08T02:39:40;9.63;;;7.27;;
4244;SDS011;2136;48.502;9.194;2023-09-08T02:42:06;7.83;;;6.40;;
4244;SDS011;2136;48.502;9.194;2023-09-08T02:44:33;7.03;;;6.10;;
4244;SDS011;2136;48.502;9.194;2023-09-08T02:47:00;7.20;;;6.50;;
4244;SDS011;2136;48.502;9.194;2023-09-08T02:49:28;7.50;;;6.63;;
4244;SDS011;2136;48.502;9.194;2023-09-08T02:51:55;10.53;;;6.63;;
4244;SDS011;2136;48.502;9.194;2023-09-08T02:54:22;7.00;;;6.30;;
4244;SDS011;2136;48.502;9.194;2023-09-08T02:56:48;9.90;;;6.93;;
4244;SDS011;2136;48.502;9.194;2023-09-08T02:59:15;6.70;;;6.10;;
4244;SDS011;2136;48.502;9.194;2023-09-08T03:01:42;6.50;;;6.00;;
4244;SDS011;2136;48.502;9.194;2023-09-08T03:04:09;7.83;;;6.40;;
4244;SDS011;2136;48.502;9.194;2023-09-08T03:06:37;10.30;;;6.47;;
4244;SDS011;2136;48.502;9.194;2023-09-08T03:09:04;9.17;;;6.77;;
4244;SDS011;2136;48.502;9.194;2023-09-08T03:11:30;7.70;;;6.83;;
4244;SDS011;2136;48.502;9.194;2023-09-08T03:13:57;8.20;;;6.60;;
4244;SDS011;2136;48.502;9.194;2023-09-08T03:16:24;7.43;;;6.73;;
4244;SDS011;2136;48.502;9.194;2023-09-08T03:18:51;7.53;;;6.70;;
4244;SDS011;2136;48.502;9.194;2023-09-08T03:21:17;11.90;;;6.50;;
4244;SDS011;2136;48.502;9.194;2023-09-08T03:23:46;7.10;;;6.40;;
4244;SDS011;2136;48.502;9.194;2023-09-08T03:26:12;10.20;;;7.47;;
4244;SDS011;2136;48.502;9.194;2023-09-08T03:28:41;9.60;;;7.13;;
4244;SDS011;2136;48.502;9.194;2023-09-08T03:31:08;8.40;;;6.90;;
4244;SDS011;2136;48.502;9.194;2023-09-08T03:33:35;8.07;;;6.20;;
4244;SDS011;2136;48.502;9.194;2023-09-08T03:36:01;7.80;;;6.80;;
4244;SDS011;2136;48.502;9.194;2023-09-08T03:38:28;10.00;;;6.60;;
4244;SDS011;2136;48.502;9.194;2023-09-08T03:40:56;12.57;;;6.93;;
4244;SDS011;2136;48.502;9.194;2023-09-08T03:43:23;9.57;;;7.33;;
4244;SDS011;2136;48.502;9.194;2023-09-08T03:45:50;9.07;;;7.17;;
4244;SDS011;2136;48.502;9.194;2023-09-08T03:48:16;10.17;;;7.17;;
4244;SDS011;2136;48.502;9.194;2023-09-08T03:50:43;7.70;;;6.97;;
4244;SDS011;2136;48.502;9.194;2023-09-08T03:53:10;8.00;;;7.23;;
4244;SDS011;2136;48.502;9.194;2023-09-08T03:55:37;7.80;;;6.87;;
4244;SDS011;2136;48.502;9.194;2023-09-08T03:58:06;9.47;;;7.53;;
4244;SDS011;2136;48.502;9.194;2023-09-08T04:00:32;9.90;;;8.00;;
4244;SDS011;2136;48.502;9.194;2023-09-08T04:03:00;9.27;;;8.37;;
4244;SDS011;2136;48.502;9.194;2023-09-08T04:05:27;14.80;;;11.30;;
4244;SDS011;2136;48.502;9.194;2023-09-08T04:07:54;12.93;;;10.47;;
4244;SDS011;2136;48.502;9.194;2023-09-08T04:10:21;10.13;;;8.90;;
4244;SDS011;2136;48.502;9.194;2023-09-08T04:12:47;12.97;;;7.70;;
4244;SDS011;2136;48.502;9.194;2023-09-08T04:15:16;12.63;;;7.77;;
4244;SDS011;2136;48.502;9.194;2023-09-08T04:17:42;8.73;;;7.63;;
4244;SDS011;2136;48.502;9.194;2023-09-08T04:20:10;8.63;;;7.43;;
4244;SDS011;2136;48.502;9.194;2023-09-08T04:22:39;9.30;;;7.00;;
4244;SDS011;2136;48.502;9.194;2023-09-08T04:25:07;10.87;;;8.17;;
4244;SDS011;2136;48.502;9.194;2023-09-08T04:27:35;8.37;;;7.50;;
4244;SDS011;2136;48.502;9.194;2023-09-08T04:30:02;8.63;;;7.37;;
4244;SDS011;2136;48.502;9.194;2023-09-08T04:32:30;10.17;;;7.53;;
4244;SDS011;2136;48.502;9.194;2023-09-08T04:34:57;7.80;;;6.90;;
4244;SDS011;2136;48.502;9.194;2023-09-08T04:37:24;7.80;;;7.00;;
4244;SDS011;2136;48.502;9.194;2023-09-08T04:39:51;10.10;;;7.50;;
4244;SDS011;2136;48.502;9.194;2023-09-08T04:42:17;7.67;;;6.70;;
4244;SDS011;2136;48.502;9.194;2023-09-08T04:44:44;8.47;;;6.43;;
4244;SDS011;2136;48.502;9.194;2023-09-08T04:47:11;9.20;;;7.50;;
4244;SDS011;2136;48.502;9.194;2023-09-08T04:49:39;8.10;;;7.37;;
4244;SDS011;2136;48.502;9.194;2023-09-08T04:52:06;11.07;;;6.83;;
4244;SDS011;2136;48.502;9.194;2023-09-08T04:54:33;9.33;;;6.60;;
4244;SDS011;2136;48.502;9.194;2023-09-08T04:57:00;7.90;;;5.90;;
4244;SDS011;2136;48.502;9.194;2023-09-08T04:59:27;9.73;;;6.83;;
4244;SDS011;2136;48.502;9.194;2023-09-08T05:01:54;7.27;;;6.57;;
4244;SDS011;2136;48.502;9.194;2023-09-08T05:04:21;7.90;;;7.20;;
4244;SDS011;2136;48.502;9.194;2023-09-08T05:06:49;7.73;;;6.93;;
4244;SDS011;2136;48.502;9.194;2023-09-08T05:09:16;7.83;;;7.03;;
4244;SDS011;2136;48.502;9.194;2023-09-08T05:11:42;7.50;;;6.80;;
4244;SDS011;2136;48.502;9.194;2023-09-08T05:14:09;7.83;;;6.87;;
4244;SDS011;2136;48.502;9.194;2023-09-08T05:16:36;8.83;;;7.10;;
4244;SDS011;2136;48.502;9.194;2023-09-08T05:19:10;10.00;;;7.87;;
4244;SDS011;2136;48.502;9.194;2023-09-08T05:21:37;13.90;;;6.83;;
4244;SDS011;2136;48.502;9.194;2023-09-08T05:24:05;8.47;;;7.63;;
4244;SDS011;2136;48.502;9.194;2023-09-08T05:26:33;9.97;;;7.50;;
4244;SDS011;2136;48.502;9.194;2023-09-08T05:29:00;10.37;;;7.70;;
4244;SDS011;2136;48.502;9.194;2023-09-08T05:31:27;15.07;;;8.33;;
4244;SDS011;2136;48.502;9.194;2023-09-08T05:33:53;9.77;;;7.60;;
4244;SDS011;2136;48.502;9.194;2023-09-08T05:36:20;9.37;;;8.27;;
4244;SDS011;2136;48.502;9.194;2023-09-08T05:38:47;9.53;;;8.47;;
4244;SDS011;2136;48.502;9.194;2023-09-08T05:41:15;12.90;;;8.07;;
4244;SDS011;2136;48.502;9.194;2023-09-08T05:43:42;8.97;;;7.57;;
4244;SDS011;2136;48.502;9.194;2023-09-08T05:46:10;15.80;;;7.37;;
4244;SDS011;2136;48.502;9.194;2023-09-08T05:48:38;10.20;;;7.70;;
4244;SDS011;2136;48.502;9.194;2023-09-08T05:51:04;9.07;;;8.17;;
4244;SDS011;2136;48.502;9.194;2023-09-08T05:53:31;8.13;;;7.33;;
4244;SDS011;2136;48.502;9.194;2023-09-08T05:56:00;16.93;;;8.93;;
4244;SDS011;2136;48.502;9.194;2023-09-08T05:58:28;10.33;;;7.33;;
4244;SDS011;2136;48.502;9.194;2023-09-08T06:00:55;8.83;;;7.87;;
4244;SDS011;2136;48.502;9.194;2023-09-08T06:03:22;12.60;;;9.60;;
4244;SDS011;2136;48.502;9.194;2023-09-08T06:05:49;9.50;;;7.57;;
4244;SDS011;2136;48.502;9.194;2023-09-08T06:08:15;12.00;;;8.07;;
4244;SDS011;2136;48.502;9.194;2023-09-08T06:10:42;10.70;;;8.47;;
4244;SDS011;2136;48.502;9.194;2023-09-08T06:13:09;11.03;;;7.90;;
4244;SDS011;2136;48.502;9.194;2023-09-08T06:15:37;9.53;;;8.00;;
4244;SDS011;2136;48.502;9.194;2023-09-08T06:18:05;10.60;;;8.20;;
4244;SDS011;2136;48.502;9.194;2023-09-08T06:20:32;14.63;;;9.10;;
4244;SDS011;2136;48.502;9.194;2023-09-08T06:22:58;12.77;;;8.40;;
4244;SDS011;2136;48.502;9.194;2023-09-08T06:25:26;15.70;;;9.40;;
4244;SDS011;2136;48.502;9.194;2023-09-08T06:27:53;11.53;;;8.73;;
4244;SDS011;2136;48.502;9.194;2023-09-08T06:30:20;11.67;;;8.30;;
4244;SDS011;2136;48.502;9.194;2023-09-08T06:32:48;11.30;;;9.00;;
4244;SDS011;2136;48.502;9.194;2023-09-08T06:35:15;12.23;;;8.40;;
4244;SDS011;2136;48.502;9.194;2023-09-08T06:37:42;9.80;;;8.53;;
4244;SDS011;2136;48.502;9.194;2023-09-08T06:40:09;14.60;;;10.13;;
4244;SDS011;2136;48.502;9.194;2023-09-08T06:42:36;9.83;;;8.83;;
4244;SDS011;2136;48.502;9.194;2023-09-08T06:45:03;10.80;;;9.70;;
4244;SDS011;2136;48.502;9.194;2023-09-08T06:47:30;10.27;;;8.47;;
4244;SDS011;2136;48.502;9.194;2023-09-08T06:49:58;15.33;;;10.50;;
4244;SDS011;2136;48.502;9.194;2023-09-08T06:52:25;12.30;;;9.80;;
4244;SDS011;2136;48.502;9.194;2023-09-08T06:54:52;14.23;;;9.67;;
4244;SDS011;2136;48.502;9.194;2023-09-08T06:57:18;11.40;;;9.80;;
4244;SDS011;2136;48.502;9.194;2023-09-08T06:59:45;10.90;;;9.40;;
4244;SDS011;2136;48.502;9.194;2023-09-08T07:02:12;10.90;;;9.17;;
4244;SDS011;2136;48.502;9.194;2023-09-08T07:04:39;10.90;;;8.17;;
4244;SDS011;2136;48.502;9.194;2023-09-08T07:07:07;13.13;;;8.87;;
4244;SDS011;2136;48.502;9.194;2023-09-08T07:09:35;13.73;;;9.43;;
4244;SDS011;2136;48.502;9.194;2023-09-08T07:12:03;9.63;;;8.67;;
4244;SDS011;2136;48.502;9.194;2023-09-08T07:14:31;13.80;;;9.27;;
4244;SDS011;2136;48.502;9.194;2023-09-08T07:16:58;10.00;;;8.77;;
4244;SDS011;2136;48.502;9.194;2023-09-08T07:19:25;13.00;;;9.30;;
4244;SDS011;2136;48.502;9.194;2023-09-08T07:21:51;12.07;;;9.30;;
4244;SDS011;2136;48.502;9.194;2023-09-08T07:24:19;11.67;;;10.00;;
4244;SDS011;2136;48.502;9.194;2023-09-08T07:26:46;10.33;;;9.33;;
4244;SDS011;2136;48.502;9.194;2023-09-08T07:29:12;10.83;;;9.27;;
4244;SDS011;2136;48.502;9.194;2023-09-08T07:31:39;10.83;;;9.40;;
4244;SDS011;2136;48.502;9.194;2023-09-08T07:34:06;11.53;;;9.73;;
4244;SDS011;2136;48.502;9.194;2023-09-08T07:36:33;12.37;;;9.40;;
4244;SDS011;2136;48.502;9.194;2023-09-08T07:39:01;9.97;;;8.70;;
4244;SDS011;2136;48.502;9.194;2023-09-08T07:41:29;9.03;;;8.13;;
4244;SDS011;2136;48.502;9.194;2023-09-08T07:43:56;9.13;;;8.20;;
4244;SDS011;2136;48.502;9.194;2023-09-08T07:46:23;10.63;;;8.00;;
4244;SDS011;2136;48.502;9.194;2023-09-08T07:48:50;11.70;;;8.20;;
4244;SDS011;2136;48.502;9.194;2023-09-08T07:51:16;11.33;;;7.30;;
4244;SDS011;2136;48.502;9.194;2023-09-08T07:53:43;12.40;;;8.57;;
4244;SDS011;2136;48.502;9.194;2023-09-08T07:56:10;9.20;;;7.47;;
4244;SDS011;2136;48.502;9.194;2023-09-08T07:58:38;8.73;;;7.20;;
4244;SDS011;2136;48.502;9.194;2023-09-08T08:01:05;9.17;;;8.23;;
4244;SDS011;2136;48.502;9.194;2023-09-08T08:03:32;6.97;;;6.27;;
4244;SDS011;2136;48.502;9.194;2023-09-08T08:05:59;9.87;;;7.73;;
4244;SDS011;2136;48.502;9.194;2023-09-08T08:08:26;10.60;;;7.80;;
4244;SDS011;2136;48.502;9.194;2023-09-08T08:10:53;7.57;;;6.97;;
4244;SDS011;2136;48.502;9.194;2023-09-08T08:13:20;7.63;;;6.83;;
4244;SDS011;2136;48.502;9.194;2023-09-08T08:15:49;6.87;;;6.20;;
4244;SDS011;2136;48.502;9.194;2023-09-08T08:18:15;8.80;;;7.00;;
4244;SDS011;2136;48.502;9.194;2023-09-08T08:20:42;12.97;;;6.53;;
4244;SDS011;2136;48.502;9.194;2023-09-08T08:23:09;8.25;;;6.85;;
4244;SDS011;2136;48.502;9.194;2023-09-08T08:25:36;13.43;;;7.20;;
4244;SDS011;2136;48.502;9.194;2023-09-08T08:28:03;9.93;;;6.80;;
4244;SDS011;2136;48.502;9.194;2023-09-08T08:30:30;7.10;;;6.00;;
4244;SDS011;2136;48.502;9.194;2023-09-08T08:32:59;8.80;;;6.70;;
4244;SDS011;2136;48.502;9.194;2023-09-08T08:35:27;7.20;;;6.20;;
4244;SDS011;2136;48.502;9.194;2023-09-08T08:37:53;7.43;;;6.20;;
4244;SDS011;2136;48.502;9.194;2023-09-08T08:40:20;6.33;;;5.50;;
4244;SDS011;2136;48.502;9.194;2023-09-08T08:42:53;7.50;;;6.30;;
4244;SDS011;2136;48.502;9.194;2023-09-08T08:45:21;8.40;;;6.53;;
4244;SDS011;2136;48.502;9.194;2023-09-08T08:47:49;6.93;;;6.23;;
4244;SDS011;2136;48.502;9.194;2023-09-08T08:50:18;6.40;;;5.80;;
4244;SDS011;2136;48.502;9.194;2023-09-08T08:52:46;11.60;;;6.67;;
4244;SDS011;2136;48.502;9.194;2023-09-08T08:55:13;10.00;;;7.10;;
4244;SDS011;2136;48.502;9.194;2023-09-08T08:57:41;6.70;;;6.07;;
4244;SDS011;2136;48.502;9.194;2023-09-08T09:00:08;11.50;;;6.10;;
4244;SDS011;2136;48.502;9.194;2023-09-08T09:02:37;8.20;;;6.10;;
4244;SDS011;2136;48.502;9.194;2023-09-08T09:05:06;7.10;;;6.40;;
4244;SDS011;2136;48.502;9.194;2023-09-08T09:07:36;6.87;;;5.60;;
4244;SDS011;2136;48.502;9.194;2023-09-08T09:10:03;5.73;;;5.20;;
4244;SDS011;2136;48.502;9.194;2023-09-08T09:12:30;6.20;;;5.70;;
4244;SDS011;2136;48.502;9.194;2023-09-08T09:14:58;6.70;;;6.00;;
4244;SDS011;2136;48.502;9.194;2023-09-08T09:17:25;6.80;;;6.10;;
4244;SDS011;2136;48.502;9.194;2023-09-08T09:19:54;6.87;;;5.70;;
4244;SDS011;2136;48.502;9.194;2023-09-08T09:22:40;6.50;;;5.80;;
4244;SDS011;2136;48.502;9.194;2023-09-08T09:25:08;7.27;;;6.23;;
4244;SDS011;2136;48.502;9.194;2023-09-08T09:27:35;6.23;;;5.63;;
4244;SDS011;2136;48.502;9.194;2023-09-08T09:30:06;6.67;;;5.93;;
4244;SDS011;2136;48.502;9.194;2023-09-08T09:32:34;5.30;;;4.80;;
4244;SDS011;2136;48.502;9.194;2023-09-08T09:35:01;5.97;;;5.43;;
4244;SDS011;2136;48.502;9.194;2023-09-08T09:37:29;5.80;;;5.30;;
4244;SDS011;2136;48.502;9.194;2023-09-08T09:39:57;5.93;;;5.43;;
4244;SDS011;2136;48.502;9.194;2023-09-08T09:42:27;6.43;;;5.83;;
4244;SDS011;2136;48.502;9.194;2023-09-08T09:44:54;11.20;;;5.27;;
4244;SDS011;2136;48.502;9.194;2023-09-08T09:47:21;5.27;;;4.77;;
4244;SDS011;2136;48.502;9.194;2023-09-08T09:49:48;5.30;;;4.80;;
4244;SDS011;2136;48.502;9.194;2023-09-08T09:52:20;5.90;;;5.37;;
4244;SDS011;2136;48.502;9.194;2023-09-08T09:54:47;5.27;;;4.70;;
4244;SDS011;2136;48.502;9.194;2023-09-08T09:57:18;5.73;;;5.17;;
4244;SDS011;2136;48.502;9.194;2023-09-08T09:59:47;7.83;;;4.93;;
4244;SDS011;2136;48.502;9.194;2023-09-08T10:02:15;5.70;;;5.17;;
4244;SDS011;2136;48.502;9.194;2023-09-08T10:04:45;5.13;;;4.73;;
4244;SDS011;2136;48.502;9.194;2023-09-08T10:07:15;7.20;;;5.03;;
4244;SDS011;2136;48.502;9.194;2023-09-08T10:09:43;5.53;;;5.13;;
4244;SDS011;2136;48.502;9.194;2023-09-08T10:12:11;5.20;;;4.80;;
4244;SDS011;2136;48.502;9.194;2023-09-08T10:14:43;5.50;;;4.90;;
4244;SDS011;2136;48.502;9.194;2023-09-08T10:17:11;4.90;;;4.50;;
4244;SDS011;2136;48.502;9.194;2023-09-08T10:19:43;4.83;;;4.43;;
4244;SDS011;2136;48.502;9.194;2023-09-08T10:22:16;5.93;;;5.00;;
4244;SDS011;2136;48.502;9.194;2023-09-08T10:24:47;5.53;;;4.37;;
4244;SDS011;2136;48.502;9.194;2023-09-08T10:27:16;4.80;;;4.40;;
4244;SDS011;2136;48.502;9.194;2023-09-08T10:29:47;4.63;;;4.23;;
4244;SDS011;2136;48.502;9.194;2023-09-08T10:32:14;5.60;;;5.20;;
4244;SDS011;2136;48.502;9.194;2023-09-08T10:34:43;4.80;;;4.50;;
4244;SDS011;2136;48.502;9.194;2023-09-08T10:37:18;6.57;;;4.37;;
4244;SDS011;2136;48.502;9.194;2023-09-08T10:39:46;4.50;;;4.20;;
4244;SDS011;2136;48.502;9.194;2023-09-08T10:42:20;4.93;;;4.57;;
4244;SDS011;2136;48.502;9.194;2023-09-08T10:45:02;6.80;;;4.40;;
4244;SDS011;2136;48.502;9.194;2023-09-08T10:47:53;5.57;;;5.00;;
4244;SDS011;2136;48.502;9.194;2023-09-08T10:50:26;5.37;;;4.87;;
4244;SDS011;2136;48.502;9.194;2023-09-08T10:53:13;4.90;;;4.60;;
4244;SDS011;2136;48.502;9.194;2023-09-08T10:55:41;4.47;;;4.20;;
4244;SDS011;2136;48.502;9.194;2023-09-08T10:58:20;5.17;;;4.60;;
4244;SDS011;2136;48.502;9.194;2023-09-08T11:00:56;4.83;;;4.43;;
4244;SDS011;2136;48.502;9.194;2023-09-08T11:03:27;4.88;;;4.47;;
4244;SDS011;2136;48.502;9.194;2023-09-08T11:06:09;4.30;;;4.10;;
4244;SDS011;2136;48.502;9.194;2023-09-08T11:08:42;5.15;;;4.75;;
4244;SDS011;2136;48.502;9.194;2023-09-08T11:11:10;4.22;;;4.03;;
4244;SDS011;2136;48.502;9.194;2023-09-08T11:13:37;4.55;;;4.25;;
4244;SDS011;2136;48.502;9.194;2023-09-08T11:16:07;5.13;;;4.70;;
4244;SDS011;2136;48.502;9.194;2023-09-08T11:18:34;10.02;;;4.60;;
4244;SDS011;2136;48.502;9.194;2023-09-08T11:21:02;5.13;;;4.82;;
4244;SDS011;2136;48.502;9.194;2023-09-08T11:23:29;4.13;;;3.83;;
4244;SDS011;2136;48.502;9.194;2023-09-08T11:25:57;4.55;;;4.25;;
4244;SDS011;2136;48.502;9.194;2023-09-08T11:28:25;5.00;;;4.63;;
4244;SDS011;2136;48.502;9.194;2023-09-08T11:30:53;5.15;;;4.75;;
4244;SDS011;2136;48.502;9.194;2023-09-08T11:33:22;5.07;;;4.78;;
4244;SDS011;2136;48.502;9.194;2023-09-08T11:35:50;4.70;;;4.43;;
4244;SDS011;2136;48.502;9.194;2023-09-08T11:38:17;5.10;;;4.57;;
4244;SDS011;2136;48.502;9.194;2023-09-08T11:40:44;5.75;;;4.40;;
4244;SDS011;2136;48.502;9.194;2023-09-08T11:43:11;4.70;;;4.40;;
4244;SDS011;2136;48.502;9.194;2023-09-08T11:45:38;5.30;;;4.90;;
4244;SDS011;2136;48.502;9.194;2023-09-08T11:48:05;4.93;;;4.43;;
4244;SDS011;2136;48.502;9.194;2023-09-08T11:50:33;4.13;;;3.93;;
4244;SDS011;2136;48.502;9.194;2023-09-08T11:53:00;5.20;;;4.80;;
4244;SDS011;2136;48.502;9.194;2023-09-08T11:55:27;4.93;;;4.50;;
4244;SDS011;2136;48.502;9.194;2023-09-08T11:57:55;4.60;;;4.20;;
4244;SDS011;2136;48.502;9.194;2023-09-08T12:00:24;5.67;;;5.27;;
4244;SDS011;2136;48.502;9.194;2023-09-08T12:02:52;5.97;;;5.57;;
4244;SDS011;2136;48.502;9.194;2023-09-08T12:05:22;5.40;;;4.90;;
4244;SDS011;2136;48.502;9.194;2023-09-08T12:07:52;4.80;;;4.40;;
4244;SDS011;2136;48.502;9.194;2023-09-08T12:10:20;6.30;;;4.63;;
4244;SDS011;2136;48.502;9.194;2023-09-08T12:12:48;5.90;;;5.40;;
4244;SDS011;2136;48.502;9.194;2023-09-08T12:15:30;5.60;;;5.10;;
4244;SDS011;2136;48.502;9.194;2023-09-08T12:17:58;6.10;;;5.50;;
4244;SDS011;2136;48.502;9.194;2023-09-08T12:20:25;4.80;;;4.50;;
4244;SDS011;2136;48.502;9.194;2023-09-08T12:22:54;4.87;;;4.50;;
4244;SDS011;2136;48.502;9.194;2023-09-08T12:25:23;8.00;;;5.77;;
4244;SDS011;2136;48.502;9.194;2023-09-08T12:27:50;5.80;;;5.30;;
4244;SDS011;2136;48.502;9.194;2023-09-08T12:30:18;5.40;;;4.90;;
4244;SDS011;2136;48.502;9.194;2023-09-08T12:32:45;5.33;;;4.90;;
4244;SDS011;2136;48.502;9.194;2023-09-08T12:35:18;5.40;;;4.20;;
4244;SDS011;2136;48.502;9.194;2023-09-08T12:37:47;6.17;;;5.57;;
4244;SDS011;2136;48.502;9.194;2023-09-08T12:40:19;6.37;;;4.80;;
4244;SDS011;2136;48.502;9.194;2023-09-08T12:42:46;5.90;;;5.40;;
4244;SDS011;2136;48.502;9.194;2023-09-08T12:45:12;5.23;;;4.73;;
4244;SDS011;2136;48.502;9.194;2023-09-08T12:47:39;5.63;;;5.13;;
4244;SDS011;2136;48.502;9.194;2023-09-08T12:50:06;5.90;;;5.00;;
4244;SDS011;2136;48.502;9.194;2023-09-08T12:52:33;6.07;;;5.40;;
4244;SDS011;2136;48.502;9.194;2023-09-08T12:55:00;5.30;;;4.90;;
4244;SDS011;2136;48.502;9.194;2023-09-08T12:57:28;4.17;;;3.87;;
4244;SDS011;2136;48.502;9.194;2023-09-08T12:59:55;5.90;;;5.30;;
4244;SDS011;2136;48.502;9.194;2023-09-08T13:02:22;5.40;;;4.90;;
4244;SDS011;2136;48.502;9.194;2023-09-08T13:04:49;5.30;;;4.90;;
4244;SDS011;2136;48.502;9.194;2023-09-08T13:07:16;4.47;;;4.17;;
4244;SDS011;2136;48.502;9.194;2023-09-08T13:09:43;5.27;;;4.23;;
4244;SDS011;2136;48.502;9.194;2023-09-08T13:12:10;6.17;;;5.43;;
4244;SDS011;2136;48.502;9.194;2023-09-08T13:14:39;5.17;;;4.77;;
4244;SDS011;2136;48.502;9.194;2023-09-08T13:17:08;7.10;;;5.13;;
4244;SDS011;2136;48.502;9.194;2023-09-08T13:19:35;5.80;;;5.20;;
4244;SDS011;2136;48.502;9.194;2023-09-08T13:22:03;5.20;;;4.70;;
4244;SDS011;2136;48.502;9.194;2023-09-08T13:24:30;7.73;;;5.10;;
4244;SDS011;2136;48.502;9.194;2023-09-08T13:26:58;5.60;;;5.07;;
4244;SDS011;2136;48.502;9.194;2023-09-08T13:29:25;8.33;;;5.17;;
4244;SDS011;2136;48.502;9.194;2023-09-08T13:31:54;5.10;;;4.70;;
4244;SDS011;2136;48.502;9.194;2023-09-08T13:34:22;4.93;;;4.53;;
4244;SDS011;2136;48.502;9.194;2023-09-08T13:36:49;8.77;;;5.60;;
4244;SDS011;2136;48.502;9.194;2023-09-08T13:39:15;7.80;;;5.13;;
4244;SDS011;2136;48.502;9.194;2023-09-08T13:41:46;5.60;;;5.10;;
4244;SDS011;2136;48.502;9.194;2023-09-08T13:44:15;5.33;;;4.63;;
4244;SDS011;2136;48.502;9.194;2023-09-08T13:46:42;6.03;;;5.40;;
4244;SDS011;2136;48.502;9.194;2023-09-08T13:49:11;5.37;;;4.87;;
4244;SDS011;2136;48.502;9.194;2023-09-08T13:51:37;5.30;;;4.90;;
4244;SDS011;2136;48.502;9.194;2023-09-08T13:54:04;7.90;;;5.03;;
4244;SDS011;2136;48.502;9.194;2023-09-08T13:56:31;5.57;;;5.03;;
4244;SDS011;2136;48.502;9.194;2023-09-08T13:58:58;4.73;;;4.33;;
4244;SDS011;2136;48.502;9.194;2023-09-08T14:01:25;5.30;;;4.80;;
4244;SDS011;2136;48.502;9.194;2023-09-08T14:03:54;5.20;;;4.70;;
4244;SDS011;2136;48.502;9.194;2023-09-08T14:06:22;5.93;;;5.30;;
4244;SDS011;2136;48.502;9.194;2023-09-08T14:08:50;5.80;;;5.20;;
4244;SDS011;2136;48.502;9.194;2023-09-08T14:11:17;6.05;;;5.45;;
4244;SDS011;2136;48.502;9.194;2023-09-08T14:13:44;5.50;;;5.00;;
4244;SDS011;2136;48.502;9.194;2023-09-08T14:16:11;6.90;;;4.93;;
4244;SDS011;2136;48.502;9.194;2023-09-08T14:18:38;5.30;;;4.83;;
4244;SDS011;2136;48.502;9.194;2023-09-08T14:21:05;9.30;;;5.40;;
4244;SDS011;2136;48.502;9.194;2023-09-08T14:23:33;5.93;;;5.17;;
4244;SDS011;2136;48.502;9.194;2023-09-08T14:26:02;9.80;;;4.90;;
4244;SDS011;2136;48.502;9.194;2023-09-08T14:28:29;7.50;;;5.07;;
4244;SDS011;2136;48.502;9.194;2023-09-08T14:30:57;5.03;;;4.63;;
4244;SDS011;2136;48.502;9.194;2023-09-08T14:33:24;6.40;;;4.70;;
4244;SDS011;2136;48.502;9.194;2023-09-08T14:35:51;6.03;;;4.80;;
4244;SDS011;2136;48.502;9.194;2023-09-08T14:38:19;5.43;;;4.93;;
4244;SDS011;2136;48.502;9.194;2023-09-08T14:40:54;6.37;;;5.77;;
4244;SDS011;2136;48.502;9.194;2023-09-08T14:43:22;5.40;;;4.90;;
4244;SDS011;2136;48.502;9.194;2023-09-08T14:45:49;5.53;;;5.03;;
4244;SDS011;2136;48.502;9.194;2023-09-08T14:48:16;7.27;;;5.60;;
4244;SDS011;2136;48.502;9.194;2023-09-08T14:50:43;5.80;;;5.23;;
4244;SDS011;2136;48.502;9.194;2023-09-08T14:53:10;6.53;;;4.97;;
4244;SDS011;2136;48.502;9.194;2023-09-08T14:55:37;5.57;;;5.00;;
4244;SDS011;2136;48.502;9.194;2023-09-08T14:58:05;5.70;;;5.10;;
4244;SDS011;2136;48.502;9.194;2023-09-08T15:00:32;5.00;;;4.60;;
4244;SDS011;2136;48.502;9.194;2023-09-08T15:02:59;4.90;;;4.50;;
4244;SDS011;2136;48.502;9.194;2023-09-08T15:05:26;5.63;;;5.13;;
4244;SDS011;2136;48.502;9.194;2023-09-08T15:07:53;6.30;;;5.33;;
4244;SDS011;2136;48.502;9.194;2023-09-08T15:10:20;6.23;;;4.80;;
4244;SDS011;2136;48.502;9.194;2023-09-08T15:12:47;6.80;;;5.50;;
4244;SDS011;2136;48.502;9.194;2023-09-08T15:15:15;5.50;;;5.00;;
4244;SDS011;2136;48.502;9.194;2023-09-08T15:17:43;5.67;;;4.30;;
4244;SDS011;2136;48.502;9.194;2023-09-08T15:20:10;5.50;;;5.03;;
4244;SDS011;2136;48.502;9.194;2023-09-08T15:22:38;3.20;;;2.90;;
4244;SDS011;2136;48.502;9.194;2023-09-08T15:25:05;4.90;;;4.20;;